sensor_id;sensor_type;location;lat;lon;timestamp;P1;durP1;ratioP1;P2;durP2;ratioP2
78840;SDS011;68379;47.190;27.558;2024-01-27T00:01:48;12.30;;;5.10;;
78840;SDS011;68379;47.190;27.558;2024-01-27T00:04:20;8.90;;;3.80;;
78840;SDS011;68379;47.190;27.558;2024-01-27T00:06:52;12.90;;;5.70;;
78840;SDS011;68379;47.190;27.558;2024-01-27T00:09:23;8.70;;;4.50;;
78840;SDS011;68379;47.190;27.558;2024-01-27T00:11:55;13.30;;;5.50;;
78840;SDS011;68379;47.190;27.558;2024-01-27T00:14:27;11.50;;;5.30;;
78840;SDS011;68379;47.190;27.558;2024-01-27T00:16:59;12.60;;;5.70;;
78840;SDS011;68379;47.190;27.558;2024-01-27T00:19:30;9.70;;;5.40;;
78840;SDS011;68379;47.190;27.558;2024-01-27T00:22:02;12.70;;;5.20;;
78840;SDS011;68379;47.190;27.558;2024-01-27T00:24:34;12.20;;;5.50;;
78840;SDS011;68379;47.190;27.558;2024-01-27T00:27:05;11.30;;;5.70;;
78840;SDS011;68379;47.190;27.558;2024-01-27T00:29:37;12.80;;;5.70;;
78840;SDS011;68379;47.190;27.558;2024-01-27T00:32:09;11.10;;;4.20;;
78840;SDS011;68379;47.190;27.558;2024-01-27T00:34:40;11.40;;;5.40;;
78840;SDS011;68379;47.190;27.558;2024-01-27T00:37:12;9.70;;;5.60;;
78840;SDS011;68379;47.190;27.558;2024-01-27T00:39:43;10.20;;;5.10;;
78840;SDS011;68379;47.190;27.558;2024-01-27T00:42:15;11.00;;;5.50;;
78840;SDS011;68379;47.190;27.558;2024-01-27T00:44:51;12.50;;;5.90;;
78840;SDS011;68379;47.190;27.558;2024-01-27T00:47:23;10.50;;;5.20;;
78840;SDS011;68379;47.190;27.558;2024-01-27T00:49:55;11.50;;;5.50;;
78840;SDS011;68379;47.190;27.558;2024-01-27T00:52:27;9.70;;;5.00;;
78840;SDS011;68379;47.190;27.558;2024-01-27T00:54:59;10.00;;;5.40;;
78840;SDS011;68379;47.190;27.558;2024-01-27T00:57:31;13.20;;;6.00;;
78840;SDS011;68379;47.190;27.558;2024-01-27T01:00:03;12.60;;;5.20;;
78840;SDS011;68379;47.190;27.558;2024-01-27T01:02:36;11.60;;;5.60;;
78840;SDS011;68379;47.190;27.558;2024-01-27T01:05:09;12.80;;;5.30;;
78840;SDS011;68379;47.190;27.558;2024-01-27T01:07:40;13.50;;;6.10;;
78840;SDS011;68379;47.190;27.558;2024-01-27T01:10:12;10.40;;;5.60;;
78840;SDS011;68379;47.190;27.558;2024-01-27T01:12:44;11.10;;;4.80;;
78840;SDS011;68379;47.190;27.558;2024-01-27T01:15:16;11.20;;;4.50;;
78840;SDS011;68379;47.190;27.558;2024-01-27T01:17:47;11.10;;;5.20;;
78840;SDS011;68379;47.190;27.558;2024-01-27T01:20:19;11.50;;;5.60;;
78840;SDS011;68379;47.190;27.558;2024-01-27T01:22:54;9.80;;;5.00;;
78840;SDS011;68379;47.190;27.558;2024-01-27T01:25:25;8.90;;;5.00;;
78840;SDS011;68379;47.190;27.558;2024-01-27T01:27:57;12.20;;;4.90;;
78840;SDS011;68379;47.190;27.558;2024-01-27T01:30:28;11.00;;;5.70;;
78840;SDS011;68379;47.190;27.558;2024-01-27T01:33:00;10.60;;;4.80;;
78840;SDS011;68379;47.190;27.558;2024-01-27T01:35:32;11.60;;;5.60;;
78840;SDS011;68379;47.190;27.558;2024-01-27T01:38:04;12.10;;;5.70;;
78840;SDS011;68379;47.190;27.558;2024-01-27T01:40:35;12.10;;;6.00;;
78840;SDS011;68379;47.190;27.558;2024-01-27T01:43:10;11.60;;;5.60;;
78840;SDS011;68379;47.190;27.558;2024-01-27T01:45:42;11.30;;;5.50;;
78840;SDS011;68379;47.190;27.558;2024-01-27T01:48:14;10.60;;;4.90;;
78840;SDS011;68379;47.190;27.558;2024-01-27T01:50:46;11.60;;;5.50;;
78840;SDS011;68379;47.190;27.558;2024-01-27T01:53:17;10.40;;;5.20;;
78840;SDS011;68379;47.190;27.558;2024-01-27T01:55:50;14.70;;;5.80;;
78840;SDS011;68379;47.190;27.558;2024-01-27T01:58:23;12.10;;;5.30;;
78840;SDS011;68379;47.190;27.558;2024-01-27T02:01:02;12.90;;;5.50;;
78840;SDS011;68379;47.190;27.558;2024-01-27T02:03:34;11.30;;;5.00;;
78840;SDS011;68379;47.190;27.558;2024-01-27T02:06:06;9.10;;;4.80;;
78840;SDS011;68379;47.190;27.558;2024-01-27T02:08:37;12.00;;;5.00;;
78840;SDS011;68379;47.190;27.558;2024-01-27T02:11:09;11.50;;;5.10;;
78840;SDS011;68379;47.190;27.558;2024-01-27T02:13:41;11.70;;;5.10;;
78840;SDS011;68379;47.190;27.558;2024-01-27T02:16:13;12.40;;;5.50;;
78840;SDS011;68379;47.190;27.558;2024-01-27T02:18:45;10.60;;;4.90;;
78840;SDS011;68379;47.190;27.558;2024-01-27T02:21:17;10.20;;;4.20;;
78840;SDS011;68379;47.190;27.558;2024-01-27T02:23:48;12.00;;;5.60;;
78840;SDS011;68379;47.190;27.558;2024-01-27T02:26:20;11.40;;;5.90;;
78840;SDS011;68379;47.190;27.558;2024-01-27T02:28:51;11.80;;;5.50;;
78840;SDS011;68379;47.190;27.558;2024-01-27T02:31:23;12.00;;;5.40;;
78840;SDS011;68379;47.190;27.558;2024-01-27T02:33:54;12.50;;;6.00;;
78840;SDS011;68379;47.190;27.558;2024-01-27T02:36:26;13.90;;;5.70;;
78840;SDS011;68379;47.190;27.558;2024-01-27T02:38:57;10.00;;;5.10;;
78840;SDS011;68379;47.190;27.558;2024-01-27T02:41:29;10.10;;;4.80;;
78840;SDS011;68379;47.190;27.558;2024-01-27T02:44:04;11.40;;;5.90;;
78840;SDS011;68379;47.190;27.558;2024-01-27T02:46:36;9.70;;;4.70;;
78840;SDS011;68379;47.190;27.558;2024-01-27T02:49:08;12.10;;;6.00;;
78840;SDS011;68379;47.190;27.558;2024-01-27T02:51:40;14.30;;;6.00;;
78840;SDS011;68379;47.190;27.558;2024-01-27T02:54:12;12.10;;;6.30;;
78840;SDS011;68379;47.190;27.558;2024-01-27T02:56:44;13.20;;;5.30;;
78840;SDS011;68379;47.190;27.558;2024-01-27T02:59:16;10.70;;;5.80;;
78840;SDS011;68379;47.190;27.558;2024-01-27T03:01:49;13.00;;;5.60;;
78840;SDS011;68379;47.190;27.558;2024-01-27T03:04:20;12.00;;;5.80;;
78840;SDS011;68379;47.190;27.558;2024-01-27T03:06:52;12.80;;;5.80;;
78840;SDS011;68379;47.190;27.558;2024-01-27T03:09:23;11.60;;;5.40;;
78840;SDS011;68379;47.190;27.558;2024-01-27T03:11:55;10.40;;;5.80;;
78840;SDS011;68379;47.190;27.558;2024-01-27T03:14:27;12.70;;;5.60;;
78840;SDS011;68379;47.190;27.558;2024-01-27T03:16:59;9.50;;;5.20;;
78840;SDS011;68379;47.190;27.558;2024-01-27T03:19:31;11.20;;;5.80;;
78840;SDS011;68379;47.190;27.558;2024-01-27T03:22:03;10.20;;;4.90;;
78840;SDS011;68379;47.190;27.558;2024-01-27T03:24:35;9.70;;;4.90;;
78840;SDS011;68379;47.190;27.558;2024-01-27T03:27:06;11.40;;;5.20;;
78840;SDS011;68379;47.190;27.558;2024-01-27T03:29:38;11.60;;;5.60;;
78840;SDS011;68379;47.190;27.558;2024-01-27T03:32:10;9.70;;;5.00;;
78840;SDS011;68379;47.190;27.558;2024-01-27T03:34:43;14.90;;;6.80;;
78840;SDS011;68379;47.190;27.558;2024-01-27T03:37:15;10.70;;;5.60;;
78840;SDS011;68379;47.190;27.558;2024-01-27T03:39:46;11.50;;;5.10;;
78840;SDS011;68379;47.190;27.558;2024-01-27T03:42:18;9.30;;;5.30;;
78840;SDS011;68379;47.190;27.558;2024-01-27T03:44:52;8.30;;;4.70;;
78840;SDS011;68379;47.190;27.558;2024-01-27T03:47:24;11.50;;;5.60;;
78840;SDS011;68379;47.190;27.558;2024-01-27T03:49:55;11.80;;;5.30;;
78840;SDS011;68379;47.190;27.558;2024-01-27T03:52:27;12.40;;;5.60;;
78840;SDS011;68379;47.190;27.558;2024-01-27T03:54:59;9.70;;;5.20;;
78840;SDS011;68379;47.190;27.558;2024-01-27T03:57:31;12.10;;;5.80;;
78840;SDS011;68379;47.190;27.558;2024-01-27T04:00:03;11.80;;;5.20;;
78840;SDS011;68379;47.190;27.558;2024-01-27T04:02:36;11.80;;;5.60;;
78840;SDS011;68379;47.190;27.558;2024-01-27T04:05:08;13.30;;;6.00;;
78840;SDS011;68379;47.190;27.558;2024-01-27T04:07:41;12.00;;;5.30;;
78840;SDS011;68379;47.190;27.558;2024-01-27T04:10:13;11.60;;;6.00;;
78840;SDS011;68379;47.190;27.558;2024-01-27T04:12:46;14.60;;;6.50;;
78840;SDS011;68379;47.190;27.558;2024-01-27T04:15:18;13.50;;;5.90;;
78840;SDS011;68379;47.190;27.558;2024-01-27T04:17:49;15.30;;;6.80;;
78840;SDS011;68379;47.190;27.558;2024-01-27T04:20:22;10.20;;;5.60;;
78840;SDS011;68379;47.190;27.558;2024-01-27T04:22:54;13.20;;;6.10;;
78840;SDS011;68379;47.190;27.558;2024-01-27T04:25:26;11.40;;;5.70;;
78840;SDS011;68379;47.190;27.558;2024-01-27T04:27:57;12.50;;;5.60;;
78840;SDS011;68379;47.190;27.558;2024-01-27T04:30:29;12.30;;;5.50;;
78840;SDS011;68379;47.190;27.558;2024-01-27T04:33:00;10.50;;;5.80;;
78840;SDS011;68379;47.190;27.558;2024-01-27T04:35:35;11.10;;;6.00;;
78840;SDS011;68379;47.190;27.558;2024-01-27T04:38:07;12.10;;;5.80;;
78840;SDS011;68379;47.190;27.558;2024-01-27T04:40:39;11.00;;;5.60;;
78840;SDS011;68379;47.190;27.558;2024-01-27T04:43:12;11.80;;;6.20;;
78840;SDS011;68379;47.190;27.558;2024-01-27T04:45:48;11.80;;;5.80;;
78840;SDS011;68379;47.190;27.558;2024-01-27T04:48:20;13.50;;;5.60;;
78840;SDS011;68379;47.190;27.558;2024-01-27T04:50:52;11.40;;;5.50;;
78840;SDS011;68379;47.190;27.558;2024-01-27T04:53:24;13.70;;;6.20;;
78840;SDS011;68379;47.190;27.558;2024-01-27T04:55:56;11.40;;;6.10;;
78840;SDS011;68379;47.190;27.558;2024-01-27T04:58:28;10.10;;;5.40;;
78840;SDS011;68379;47.190;27.558;2024-01-27T05:01:00;13.10;;;6.30;;
78840;SDS011;68379;47.190;27.558;2024-01-27T05:03:32;12.40;;;5.90;;
78840;SDS011;68379;47.190;27.558;2024-01-27T05:06:07;12.90;;;5.80;;
78840;SDS011;68379;47.190;27.558;2024-01-27T05:08:38;10.90;;;5.60;;
78840;SDS011;68379;47.190;27.558;2024-01-27T05:11:10;12.60;;;5.80;;
78840;SDS011;68379;47.190;27.558;2024-01-27T05:13:42;12.70;;;5.80;;
78840;SDS011;68379;47.190;27.558;2024-01-27T05:16:13;13.20;;;5.90;;
78840;SDS011;68379;47.190;27.558;2024-01-27T05:18:45;13.40;;;5.70;;
78840;SDS011;68379;47.190;27.558;2024-01-27T05:21:17;11.00;;;5.90;;
78840;SDS011;68379;47.190;27.558;2024-01-27T05:23:49;10.40;;;5.20;;
78840;SDS011;68379;47.190;27.558;2024-01-27T05:26:20;11.40;;;6.30;;
78840;SDS011;68379;47.190;27.558;2024-01-27T05:28:52;13.10;;;6.60;;
78840;SDS011;68379;47.190;27.558;2024-01-27T05:31:24;10.60;;;5.70;;
78840;SDS011;68379;47.190;27.558;2024-01-27T05:33:56;14.80;;;6.90;;
78840;SDS011;68379;47.190;27.558;2024-01-27T05:36:28;11.90;;;6.60;;
78840;SDS011;68379;47.190;27.558;2024-01-27T05:39:01;14.90;;;6.40;;
78840;SDS011;68379;47.190;27.558;2024-01-27T05:41:33;12.60;;;6.00;;
78840;SDS011;68379;47.190;27.558;2024-01-27T05:44:05;12.10;;;5.80;;
78840;SDS011;68379;47.190;27.558;2024-01-27T05:46:36;11.60;;;6.10;;
78840;SDS011;68379;47.190;27.558;2024-01-27T05:49:09;13.10;;;7.00;;
78840;SDS011;68379;47.190;27.558;2024-01-27T05:51:40;14.20;;;7.20;;
78840;SDS011;68379;47.190;27.558;2024-01-27T05:54:12;13.70;;;7.10;;
78840;SDS011;68379;47.190;27.558;2024-01-27T05:56:45;14.80;;;7.20;;
78840;SDS011;68379;47.190;27.558;2024-01-27T05:59:17;12.20;;;6.30;;
78840;SDS011;68379;47.190;27.558;2024-01-27T06:01:49;15.90;;;7.90;;
78840;SDS011;68379;47.190;27.558;2024-01-27T06:04:20;14.50;;;7.60;;
78840;SDS011;68379;47.190;27.558;2024-01-27T06:06:52;16.40;;;7.90;;
78840;SDS011;68379;47.190;27.558;2024-01-27T06:09:24;15.10;;;7.30;;
78840;SDS011;68379;47.190;27.558;2024-01-27T06:11:57;14.30;;;7.70;;
78840;SDS011;68379;47.190;27.558;2024-01-27T06:14:30;14.60;;;7.00;;
78840;SDS011;68379;47.190;27.558;2024-01-27T06:17:04;14.20;;;7.30;;
78840;SDS011;68379;47.190;27.558;2024-01-27T06:19:36;14.10;;;6.10;;
78840;SDS011;68379;47.190;27.558;2024-01-27T06:22:08;15.30;;;7.60;;
78840;SDS011;68379;47.190;27.558;2024-01-27T06:24:43;15.70;;;7.30;;
78840;SDS011;68379;47.190;27.558;2024-01-27T06:27:14;15.60;;;7.40;;
78840;SDS011;68379;47.190;27.558;2024-01-27T06:29:46;14.40;;;7.60;;
78840;SDS011;68379;47.190;27.558;2024-01-27T06:32:17;13.60;;;6.80;;
78840;SDS011;68379;47.190;27.558;2024-01-27T06:34:49;16.80;;;7.50;;
78840;SDS011;68379;47.190;27.558;2024-01-27T06:37:21;14.50;;;6.80;;
78840;SDS011;68379;47.190;27.558;2024-01-27T06:39:52;15.40;;;7.90;;
78840;SDS011;68379;47.190;27.558;2024-01-27T06:42:24;15.60;;;7.80;;
78840;SDS011;68379;47.190;27.558;2024-01-27T06:44:55;16.90;;;7.70;;
78840;SDS011;68379;47.190;27.558;2024-01-27T06:47:27;18.60;;;7.70;;
78840;SDS011;68379;47.190;27.558;2024-01-27T06:49:59;14.40;;;7.00;;
78840;SDS011;68379;47.190;27.558;2024-01-27T06:52:31;14.50;;;7.40;;
78840;SDS011;68379;47.190;27.558;2024-01-27T06:55:03;13.40;;;7.30;;
78840;SDS011;68379;47.190;27.558;2024-01-27T06:57:35;15.20;;;7.70;;
78840;SDS011;68379;47.190;27.558;2024-01-27T07:00:09;16.40;;;7.30;;
78840;SDS011;68379;47.190;27.558;2024-01-27T07:02:43;17.60;;;7.00;;
78840;SDS011;68379;47.190;27.558;2024-01-27T07:05:15;15.40;;;7.70;;
78840;SDS011;68379;47.190;27.558;2024-01-27T07:07:47;15.30;;;7.40;;
78840;SDS011;68379;47.190;27.558;2024-01-27T07:10:19;16.10;;;8.40;;
78840;SDS011;68379;47.190;27.558;2024-01-27T07:12:51;15.00;;;6.80;;
78840;SDS011;68379;47.190;27.558;2024-01-27T07:15:22;19.00;;;8.40;;
78840;SDS011;68379;47.190;27.558;2024-01-27T07:17:55;17.80;;;8.40;;
78840;SDS011;68379;47.190;27.558;2024-01-27T07:20:27;17.40;;;8.90;;
78840;SDS011;68379;47.190;27.558;2024-01-27T07:22:59;20.30;;;9.80;;
78840;SDS011;68379;47.190;27.558;2024-01-27T07:25:31;22.10;;;10.60;;
78840;SDS011;68379;47.190;27.558;2024-01-27T07:28:03;21.60;;;10.00;;
78840;SDS011;68379;47.190;27.558;2024-01-27T07:30:35;21.20;;;9.50;;
78840;SDS011;68379;47.190;27.558;2024-01-27T07:33:07;18.70;;;8.90;;
78840;SDS011;68379;47.190;27.558;2024-01-27T07:35:39;22.50;;;10.40;;
78840;SDS011;68379;47.190;27.558;2024-01-27T07:38:11;23.90;;;11.10;;
78840;SDS011;68379;47.190;27.558;2024-01-27T07:40:43;20.50;;;10.60;;
78840;SDS011;68379;47.190;27.558;2024-01-27T07:43:15;21.40;;;9.70;;
78840;SDS011;68379;47.190;27.558;2024-01-27T07:45:47;15.10;;;8.20;;
78840;SDS011;68379;47.190;27.558;2024-01-27T07:48:20;14.70;;;7.50;;
78840;SDS011;68379;47.190;27.558;2024-01-27T07:50:52;16.60;;;8.50;;
78840;SDS011;68379;47.190;27.558;2024-01-27T07:53:25;17.70;;;8.40;;
78840;SDS011;68379;47.190;27.558;2024-01-27T07:55:56;16.60;;;8.30;;
78840;SDS011;68379;47.190;27.558;2024-01-27T07:58:29;19.60;;;9.40;;
78840;SDS011;68379;47.190;27.558;2024-01-27T08:01:01;18.50;;;8.30;;
78840;SDS011;68379;47.190;27.558;2024-01-27T08:03:33;21.00;;;10.00;;
78840;SDS011;68379;47.190;27.558;2024-01-27T08:06:06;21.10;;;9.00;;
78840;SDS011;68379;47.190;27.558;2024-01-27T08:11:15;16.80;;;8.20;;
78840;SDS011;68379;47.190;27.558;2024-01-27T08:13:48;17.80;;;9.00;;
78840;SDS011;68379;47.190;27.558;2024-01-27T08:16:20;20.00;;;9.80;;
78840;SDS011;68379;47.190;27.558;2024-01-27T08:18:52;18.10;;;8.80;;
78840;SDS011;68379;47.190;27.558;2024-01-27T08:21:24;16.00;;;8.60;;
78840;SDS011;68379;47.190;27.558;2024-01-27T08:23:56;20.00;;;9.10;;
78840;SDS011;68379;47.190;27.558;2024-01-27T08:26:28;17.00;;;8.70;;
78840;SDS011;68379;47.190;27.558;2024-01-27T08:29:00;20.70;;;9.10;;
78840;SDS011;68379;47.190;27.558;2024-01-27T08:31:32;19.60;;;9.20;;
78840;SDS011;68379;47.190;27.558;2024-01-27T08:34:06;18.70;;;8.80;;
78840;SDS011;68379;47.190;27.558;2024-01-27T08:36:40;18.60;;;8.10;;
78840;SDS011;68379;47.190;27.558;2024-01-27T08:39:12;22.50;;;9.60;;
78840;SDS011;68379;47.190;27.558;2024-01-27T08:41:44;18.30;;;8.50;;
78840;SDS011;68379;47.190;27.558;2024-01-27T08:44:15;20.00;;;9.00;;
78840;SDS011;68379;47.190;27.558;2024-01-27T08:46:48;17.70;;;9.20;;
78840;SDS011;68379;47.190;27.558;2024-01-27T08:49:20;20.60;;;9.20;;
78840;SDS011;68379;47.190;27.558;2024-01-27T08:51:52;18.60;;;9.10;;
78840;SDS011;68379;47.190;27.558;2024-01-27T08:54:24;20.20;;;9.50;;
78840;SDS011;68379;47.190;27.558;2024-01-27T08:56:56;17.60;;;8.60;;
78840;SDS011;68379;47.190;27.558;2024-01-27T08:59:28;19.60;;;9.70;;
78840;SDS011;68379;47.190;27.558;2024-01-27T09:01:59;18.20;;;8.60;;
78840;SDS011;68379;47.190;27.558;2024-01-27T09:04:31;16.40;;;8.30;;
78840;SDS011;68379;47.190;27.558;2024-01-27T09:07:03;19.40;;;9.10;;
78840;SDS011;68379;47.190;27.558;2024-01-27T09:09:35;16.00;;;8.30;;
78840;SDS011;68379;47.190;27.558;2024-01-27T09:12:08;19.40;;;8.80;;
78840;SDS011;68379;47.190;27.558;2024-01-27T09:14:40;17.00;;;8.80;;
78840;SDS011;68379;47.190;27.558;2024-01-27T09:17:12;20.30;;;9.00;;
78840;SDS011;68379;47.190;27.558;2024-01-27T09:19:44;18.70;;;9.10;;
78840;SDS011;68379;47.190;27.558;2024-01-27T09:22:16;17.10;;;8.80;;
78840;SDS011;68379;47.190;27.558;2024-01-27T09:24:48;18.00;;;9.00;;
78840;SDS011;68379;47.190;27.558;2024-01-27T09:27:20;17.90;;;9.30;;
78840;SDS011;68379;47.190;27.558;2024-01-27T09:29:52;18.30;;;9.10;;
78840;SDS011;68379;47.190;27.558;2024-01-27T09:32:24;22.80;;;9.80;;
78840;SDS011;68379;47.190;27.558;2024-01-27T09:34:56;20.90;;;9.40;;
78840;SDS011;68379;47.190;27.558;2024-01-27T09:37:28;21.60;;;10.20;;
78840;SDS011;68379;47.190;27.558;2024-01-27T09:40:00;20.50;;;10.10;;
78840;SDS011;68379;47.190;27.558;2024-01-27T09:42:32;19.00;;;9.50;;
78840;SDS011;68379;47.190;27.558;2024-01-27T09:45:07;17.60;;;8.90;;
78840;SDS011;68379;47.190;27.558;2024-01-27T09:47:40;19.20;;;9.80;;
78840;SDS011;68379;47.190;27.558;2024-01-27T09:50:15;18.90;;;9.10;;
78840;SDS011;68379;47.190;27.558;2024-01-27T09:52:48;17.90;;;8.40;;
78840;SDS011;68379;47.190;27.558;2024-01-27T09:55:20;14.70;;;9.00;;
78840;SDS011;68379;47.190;27.558;2024-01-27T09:57:52;20.80;;;10.20;;
78840;SDS011;68379;47.190;27.558;2024-01-27T10:00:25;16.70;;;8.90;;
78840;SDS011;68379;47.190;27.558;2024-01-27T10:02:57;18.50;;;9.20;;
78840;SDS011;68379;47.190;27.558;2024-01-27T10:05:29;15.60;;;8.00;;
78840;SDS011;68379;47.190;27.558;2024-01-27T10:08:06;19.60;;;9.30;;
78840;SDS011;68379;47.190;27.558;2024-01-27T10:10:38;18.00;;;8.50;;
78840;SDS011;68379;47.190;27.558;2024-01-27T10:13:10;16.30;;;8.10;;
78840;SDS011;68379;47.190;27.558;2024-01-27T10:15:46;18.70;;;8.60;;
78840;SDS011;68379;47.190;27.558;2024-01-27T10:18:28;19.20;;;8.90;;
78840;SDS011;68379;47.190;27.558;2024-01-27T10:21:05;17.00;;;8.40;;
78840;SDS011;68379;47.190;27.558;2024-01-27T10:23:44;19.80;;;8.70;;
78840;SDS011;68379;47.190;27.558;2024-01-27T10:26:16;17.80;;;8.70;;
78840;SDS011;68379;47.190;27.558;2024-01-27T10:28:53;18.20;;;8.70;;
78840;SDS011;68379;47.190;27.558;2024-01-27T10:31:27;14.30;;;7.70;;
78840;SDS011;68379;47.190;27.558;2024-01-27T10:34:00;18.80;;;8.80;;
78840;SDS011;68379;47.190;27.558;2024-01-27T10:36:42;19.00;;;9.00;;
78840;SDS011;68379;47.190;27.558;2024-01-27T10:39:18;19.10;;;8.90;;
78840;SDS011;68379;47.190;27.558;2024-01-27T10:41:51;19.30;;;10.50;;
78840;SDS011;68379;47.190;27.558;2024-01-27T10:44:23;16.90;;;9.60;;
78840;SDS011;68379;47.190;27.558;2024-01-27T10:46:57;18.90;;;9.70;;
78840;SDS011;68379;47.190;27.558;2024-01-27T10:49:34;17.80;;;9.40;;
78840;SDS011;68379;47.190;27.558;2024-01-27T10:52:11;17.50;;;8.90;;
78840;SDS011;68379;47.190;27.558;2024-01-27T10:54:48;18.40;;;9.50;;
78840;SDS011;68379;47.190;27.558;2024-01-27T10:57:21;20.70;;;10.20;;
78840;SDS011;68379;47.190;27.558;2024-01-27T10:59:55;19.00;;;9.80;;
78840;SDS011;68379;47.190;27.558;2024-01-27T11:02:27;21.10;;;10.70;;
78840;SDS011;68379;47.190;27.558;2024-01-27T11:05:02;21.50;;;10.80;;
78840;SDS011;68379;47.190;27.558;2024-01-27T11:07:35;26.10;;;10.70;;
78840;SDS011;68379;47.190;27.558;2024-01-27T11:10:11;24.80;;;11.00;;
78840;SDS011;68379;47.190;27.558;2024-01-27T11:12:46;23.50;;;10.70;;
78840;SDS011;68379;47.190;27.558;2024-01-27T11:15:18;24.50;;;11.10;;
78840;SDS011;68379;47.190;27.558;2024-01-27T11:17:56;22.20;;;10.30;;
78840;SDS011;68379;47.190;27.558;2024-01-27T11:20:32;22.40;;;10.50;;
78840;SDS011;68379;47.190;27.558;2024-01-27T11:23:11;26.20;;;11.40;;
78840;SDS011;68379;47.190;27.558;2024-01-27T11:25:44;22.40;;;10.20;;
78840;SDS011;68379;47.190;27.558;2024-01-27T11:28:16;28.00;;;11.80;;
78840;SDS011;68379;47.190;27.558;2024-01-27T11:30:55;25.80;;;12.50;;
78840;SDS011;68379;47.190;27.558;2024-01-27T11:33:27;27.60;;;13.50;;
78840;SDS011;68379;47.190;27.558;2024-01-27T11:36:02;21.70;;;11.30;;
78840;SDS011;68379;47.190;27.558;2024-01-27T11:38:36;23.90;;;11.60;;
78840;SDS011;68379;47.190;27.558;2024-01-27T11:41:08;24.20;;;11.80;;
78840;SDS011;68379;47.190;27.558;2024-01-27T11:43:39;26.00;;;12.30;;
78840;SDS011;68379;47.190;27.558;2024-01-27T11:46:20;25.80;;;12.00;;
78840;SDS011;68379;47.190;27.558;2024-01-27T11:48:52;26.20;;;12.90;;
78840;SDS011;68379;47.190;27.558;2024-01-27T11:51:24;25.10;;;12.00;;
78840;SDS011;68379;47.190;27.558;2024-01-27T11:53:56;24.40;;;12.40;;
78840;SDS011;68379;47.190;27.558;2024-01-27T11:56:28;24.10;;;12.50;;
78840;SDS011;68379;47.190;27.558;2024-01-27T11:59:00;25.40;;;12.40;;
78840;SDS011;68379;47.190;27.558;2024-01-27T12:01:32;28.80;;;13.00;;
78840;SDS011;68379;47.190;27.558;2024-01-27T12:04:04;25.70;;;12.10;;
78840;SDS011;68379;47.190;27.558;2024-01-27T12:06:37;25.80;;;12.30;;
78840;SDS011;68379;47.190;27.558;2024-01-27T12:09:08;27.80;;;12.00;;
78840;SDS011;68379;47.190;27.558;2024-01-27T12:11:42;29.80;;;13.10;;
78840;SDS011;68379;47.190;27.558;2024-01-27T12:14:14;25.30;;;13.10;;
78840;SDS011;68379;47.190;27.558;2024-01-27T12:16:46;25.80;;;11.90;;
78840;SDS011;68379;47.190;27.558;2024-01-27T12:19:18;29.30;;;13.30;;
78840;SDS011;68379;47.190;27.558;2024-01-27T12:21:50;28.10;;;12.80;;
78840;SDS011;68379;47.190;27.558;2024-01-27T12:24:23;28.30;;;14.20;;
78840;SDS011;68379;47.190;27.558;2024-01-27T12:26:56;26.00;;;12.00;;
78840;SDS011;68379;47.190;27.558;2024-01-27T12:29:29;27.50;;;12.30;;
78840;SDS011;68379;47.190;27.558;2024-01-27T12:32:04;26.70;;;14.70;;
78840;SDS011;68379;47.190;27.558;2024-01-27T12:34:40;26.30;;;12.10;;
78840;SDS011;68379;47.190;27.558;2024-01-27T12:37:13;30.10;;;13.20;;
78840;SDS011;68379;47.190;27.558;2024-01-27T12:39:45;26.70;;;13.40;;
78840;SDS011;68379;47.190;27.558;2024-01-27T12:42:19;23.90;;;12.90;;
78840;SDS011;68379;47.190;27.558;2024-01-27T12:44:50;23.10;;;12.10;;
78840;SDS011;68379;47.190;27.558;2024-01-27T12:47:22;28.20;;;13.40;;
78840;SDS011;68379;47.190;27.558;2024-01-27T12:49:54;27.90;;;13.00;;
78840;SDS011;68379;47.190;27.558;2024-01-27T12:52:26;27.00;;;12.40;;
78840;SDS011;68379;47.190;27.558;2024-01-27T12:54:58;26.80;;;12.50;;
78840;SDS011;68379;47.190;27.558;2024-01-27T12:57:30;26.30;;;11.90;;
78840;SDS011;68379;47.190;27.558;2024-01-27T13:00:02;23.70;;;11.10;;
78840;SDS011;68379;47.190;27.558;2024-01-27T13:02:38;23.00;;;11.90;;
78840;SDS011;68379;47.190;27.558;2024-01-27T13:05:11;25.80;;;13.00;;
78840;SDS011;68379;47.190;27.558;2024-01-27T13:07:43;25.80;;;13.20;;
78840;SDS011;68379;47.190;27.558;2024-01-27T13:10:14;25.90;;;11.90;;
78840;SDS011;68379;47.190;27.558;2024-01-27T13:12:46;27.10;;;13.40;;
78840;SDS011;68379;47.190;27.558;2024-01-27T13:15:18;25.60;;;11.80;;
78840;SDS011;68379;47.190;27.558;2024-01-27T13:17:50;25.50;;;11.70;;
78840;SDS011;68379;47.190;27.558;2024-01-27T13:20:21;28.30;;;11.90;;
78840;SDS011;68379;47.190;27.558;2024-01-27T13:22:53;30.40;;;13.60;;
78840;SDS011;68379;47.190;27.558;2024-01-27T13:25:26;25.70;;;12.00;;
78840;SDS011;68379;47.190;27.558;2024-01-27T13:27:58;28.20;;;11.70;;
78840;SDS011;68379;47.190;27.558;2024-01-27T13:30:30;20.40;;;9.90;;
78840;SDS011;68379;47.190;27.558;2024-01-27T13:33:02;23.30;;;10.50;;
78840;SDS011;68379;47.190;27.558;2024-01-27T13:35:34;23.10;;;10.40;;
78840;SDS011;68379;47.190;27.558;2024-01-27T13:38:05;21.30;;;11.30;;
78840;SDS011;68379;47.190;27.558;2024-01-27T13:40:37;26.20;;;11.20;;
78840;SDS011;68379;47.190;27.558;2024-01-27T13:43:10;22.50;;;10.80;;
78840;SDS011;68379;47.190;27.558;2024-01-27T13:45:42;23.90;;;11.10;;
78840;SDS011;68379;47.190;27.558;2024-01-27T13:48:15;24.50;;;11.60;;
78840;SDS011;68379;47.190;27.558;2024-01-27T13:50:47;21.30;;;11.00;;
78840;SDS011;68379;47.190;27.558;2024-01-27T13:53:19;27.00;;;11.70;;
78840;SDS011;68379;47.190;27.558;2024-01-27T13:55:51;23.60;;;11.10;;
78840;SDS011;68379;47.190;27.558;2024-01-27T13:58:23;22.10;;;10.90;;
78840;SDS011;68379;47.190;27.558;2024-01-27T14:00:55;23.20;;;11.10;;
78840;SDS011;68379;47.190;27.558;2024-01-27T14:03:27;21.40;;;10.80;;
78840;SDS011;68379;47.190;27.558;2024-01-27T14:05:59;21.80;;;10.10;;
78840;SDS011;68379;47.190;27.558;2024-01-27T14:08:31;21.50;;;10.20;;
78840;SDS011;68379;47.190;27.558;2024-01-27T14:11:08;24.30;;;11.10;;
78840;SDS011;68379;47.190;27.558;2024-01-27T14:13:45;21.10;;;9.20;;
78840;SDS011;68379;47.190;27.558;2024-01-27T14:16:19;20.30;;;9.70;;
78840;SDS011;68379;47.190;27.558;2024-01-27T14:19:05;22.30;;;10.40;;
78840;SDS011;68379;47.190;27.558;2024-01-27T14:21:37;21.70;;;9.70;;
78840;SDS011;68379;47.190;27.558;2024-01-27T14:24:09;24.10;;;11.00;;
78840;SDS011;68379;47.190;27.558;2024-01-27T14:26:41;26.20;;;11.90;;
78840;SDS011;68379;47.190;27.558;2024-01-27T14:29:13;25.60;;;10.40;;
78840;SDS011;68379;47.190;27.558;2024-01-27T14:31:45;24.50;;;11.10;;
78840;SDS011;68379;47.190;27.558;2024-01-27T14:34:19;23.70;;;11.10;;
78840;SDS011;68379;47.190;27.558;2024-01-27T14:36:50;24.10;;;10.30;;
78840;SDS011;68379;47.190;27.558;2024-01-27T14:39:23;27.50;;;12.50;;
78840;SDS011;68379;47.190;27.558;2024-01-27T14:41:55;25.10;;;11.20;;
78840;SDS011;68379;47.190;27.558;2024-01-27T14:44:26;30.90;;;12.50;;
78840;SDS011;68379;47.190;27.558;2024-01-27T14:46:58;23.90;;;10.40;;
78840;SDS011;68379;47.190;27.558;2024-01-27T14:49:30;25.00;;;10.90;;
78840;SDS011;68379;47.190;27.558;2024-01-27T14:52:02;28.80;;;12.10;;